sensor_id;sensor_type;location;lat;lon;timestamp;P1;durP1;ratioP1;P2;durP2;ratioP2
58302;SDS011;44109;52.398;7.024;2023-07-31T00:02:02;2.08;;;0.85;;
58302;SDS011;44109;52.398;7.024;2023-07-31T00:04:31;1.83;;;0.75;;
58302;SDS011;44109;52.398;7.024;2023-07-31T00:07:00;2.15;;;0.90;;
58302;SDS011;44109;52.398;7.024;2023-07-31T00:09:30;1.55;;;0.77;;
58302;SDS011;44109;52.398;7.024;2023-07-31T00:11:57;0.77;;;0.55;;
58302;SDS011;44109;52.398;7.024;2023-07-31T00:14:25;2.28;;;0.88;;
58302;SDS011;44109;52.398;7.024;2023-07-31T00:16:53;1.83;;;0.82;;
58302;SDS011;44109;52.398;7.024;2023-07-31T00:19:20;0.98;;;0.57;;
58302;SDS011;44109;52.398;7.024;2023-07-31T00:21:48;2.08;;;0.77;;
58302;SDS011;44109;52.398;7.024;2023-07-31T00:24:17;1.13;;;0.65;;
58302;SDS011;44109;52.398;7.024;2023-07-31T00:26:45;1.52;;;0.90;;
58302;SDS011;44109;52.398;7.024;2023-07-31T00:29:12;1.90;;;0.73;;
58302;SDS011;44109;52.398;7.024;2023-07-31T00:31:40;5.53;;;0.85;;
58302;SDS011;44109;52.398;7.024;2023-07-31T00:34:07;1.73;;;0.70;;
58302;SDS011;44109;52.398;7.024;2023-07-31T00:36:35;0.57;;;0.38;;
58302;SDS011;44109;52.398;7.024;2023-07-31T00:39:03;4.20;;;0.60;;
58302;SDS011;44109;52.398;7.024;2023-07-31T00:41:32;2.33;;;1.00;;
58302;SDS011;44109;52.398;7.024;2023-07-31T00:44:00;1.70;;;0.73;;
58302;SDS011;44109;52.398;7.024;2023-07-31T00:46:28;0.77;;;0.43;;
58302;SDS011;44109;52.398;7.024;2023-07-31T00:48:56;3.58;;;1.10;;
58302;SDS011;44109;52.398;7.024;2023-07-31T00:51:24;0.60;;;0.50;;
58302;SDS011;44109;52.398;7.024;2023-07-31T00:53:52;4.47;;;0.85;;
58302;SDS011;44109;52.398;7.024;2023-07-31T00:56:21;1.70;;;0.75;;
58302;SDS011;44109;52.398;7.024;2023-07-31T00:58:51;8.48;;;1.42;;
58302;SDS011;44109;52.398;7.024;2023-07-31T01:01:19;0.95;;;0.75;;
58302;SDS011;44109;52.398;7.024;2023-07-31T01:03:47;1.63;;;1.13;;
58302;SDS011;44109;52.398;7.024;2023-07-31T01:06:18;1.98;;;1.23;;
58302;SDS011;44109;52.398;7.024;2023-07-31T01:09:04;1.02;;;0.68;;
58302;SDS011;44109;52.398;7.024;2023-07-31T01:11:46;1.17;;;0.60;;
58302;SDS011;44109;52.398;7.024;2023-07-31T01:14:24;0.80;;;0.60;;
58302;SDS011;44109;52.398;7.024;2023-07-31T01:17:17;1.67;;;0.70;;
58302;SDS011;44109;52.398;7.024;2023-07-31T01:19:45;1.23;;;0.65;;
58302;SDS011;44109;52.398;7.024;2023-07-31T01:22:18;2.42;;;1.35;;
58302;SDS011;44109;52.398;7.024;2023-07-31T01:25:11;2.00;;;1.02;;
58302;SDS011;44109;52.398;7.024;2023-07-31T01:27:59;0.77;;;0.68;;
58302;SDS011;44109;52.398;7.024;2023-07-31T01:30:35;1.92;;;0.63;;
58302;SDS011;44109;52.398;7.024;2023-07-31T01:33:09;1.65;;;0.70;;
58302;SDS011;44109;52.398;7.024;2023-07-31T01:35:38;1.27;;;0.60;;
58302;SDS011;44109;52.398;7.024;2023-07-31T01:38:06;1.08;;;0.35;;
58302;SDS011;44109;52.398;7.024;2023-07-31T01:40:34;1.60;;;0.50;;
58302;SDS011;44109;52.398;7.024;2023-07-31T01:43:03;0.93;;;0.50;;
58302;SDS011;44109;52.398;7.024;2023-07-31T01:45:31;0.82;;;0.60;;
58302;SDS011;44109;52.398;7.024;2023-07-31T01:47:58;0.50;;;0.40;;
58302;SDS011;44109;52.398;7.024;2023-07-31T01:50:26;1.35;;;0.40;;
58302;SDS011;44109;52.398;7.024;2023-07-31T01:52:53;0.50;;;0.30;;
58302;SDS011;44109;52.398;7.024;2023-07-31T01:55:21;1.00;;;0.50;;
58302;SDS011;44109;52.398;7.024;2023-07-31T01:57:49;1.17;;;0.20;;
58302;SDS011;44109;52.398;7.024;2023-07-31T02:00:17;0.77;;;0.25;;
58302;SDS011;44109;52.398;7.024;2023-07-31T02:02:45;0.50;;;0.20;;
58302;SDS011;44109;52.398;7.024;2023-07-31T02:05:13;0.38;;;0.30;;
58302;SDS011;44109;52.398;7.024;2023-07-31T02:07:40;0.32;;;0.32;;
58302;SDS011;44109;52.398;7.024;2023-07-31T02:10:08;0.70;;;0.40;;
58302;SDS011;44109;52.398;7.024;2023-07-31T02:12:36;0.55;;;0.17;;
58302;SDS011;44109;52.398;7.024;2023-07-31T02:15:04;0.65;;;0.30;;
58302;SDS011;44109;52.398;7.024;2023-07-31T02:17:34;0.25;;;0.10;;
58302;SDS011;44109;52.398;7.024;2023-07-31T02:20:02;1.00;;;0.30;;
58302;SDS011;44109;52.398;7.024;2023-07-31T02:22:30;1.48;;;0.28;;
58302;SDS011;44109;52.398;7.024;2023-07-31T02:24:57;1.85;;;0.22;;
58302;SDS011;44109;52.398;7.024;2023-07-31T02:27:25;0.38;;;0.20;;
58302;SDS011;44109;52.398;7.024;2023-07-31T02:29:53;0.95;;;0.40;;
58302;SDS011;44109;52.398;7.024;2023-07-31T02:32:21;0.50;;;0.10;;
58302;SDS011;44109;52.398;7.024;2023-07-31T02:34:50;1.20;;;0.30;;
58302;SDS011;44109;52.398;7.024;2023-07-31T02:37:18;0.15;;;0.10;;
58302;SDS011;44109;52.398;7.024;2023-07-31T02:39:45;0.70;;;0.30;;
58302;SDS011;44109;52.398;7.024;2023-07-31T02:42:14;0.30;;;0.10;;
58302;SDS011;44109;52.398;7.024;2023-07-31T02:44:42;0.68;;;0.25;;
58302;SDS011;44109;52.398;7.024;2023-07-31T02:47:09;0.70;;;0.20;;
58302;SDS011;44109;52.398;7.024;2023-07-31T02:49:37;0.38;;;0.10;;
58302;SDS011;44109;52.398;7.024;2023-07-31T02:52:06;0.50;;;0.30;;
58302;SDS011;44109;52.398;7.024;2023-07-31T02:54:34;0.50;;;0.10;;
58302;SDS011;44109;52.398;7.024;2023-07-31T02:57:01;0.70;;;0.47;;
58302;SDS011;44109;52.398;7.024;2023-07-31T02:59:30;0.10;;;0.05;;
58302;SDS011;44109;52.398;7.024;2023-07-31T03:01:57;0.68;;;0.20;;
58302;SDS011;44109;52.398;7.024;2023-07-31T03:04:25;0.90;;;0.30;;
58302;SDS011;44109;52.398;7.024;2023-07-31T03:06:52;0.75;;;0.32;;
58302;SDS011;44109;52.398;7.024;2023-07-31T03:09:21;1.35;;;0.10;;
58302;SDS011;44109;52.398;7.024;2023-07-31T03:11:49;0.22;;;0.22;;
58302;SDS011;44109;52.398;7.024;2023-07-31T03:14:17;0.65;;;0.20;;
58302;SDS011;44109;52.398;7.024;2023-07-31T03:16:44;0.20;;;0.15;;
58302;SDS011;44109;52.398;7.024;2023-07-31T03:19:12;0.93;;;0.10;;
58302;SDS011;44109;52.398;7.024;2023-07-31T03:21:40;0.85;;;0.45;;
58302;SDS011;44109;52.398;7.024;2023-07-31T03:24:08;1.25;;;0.40;;
58302;SDS011;44109;52.398;7.024;2023-07-31T03:26:36;2.88;;;0.93;;
58302;SDS011;44109;52.398;7.024;2023-07-31T03:29:07;0.85;;;0.40;;
58302;SDS011;44109;52.398;7.024;2023-07-31T03:31:34;0.98;;;0.40;;
58302;SDS011;44109;52.398;7.024;2023-07-31T03:34:02;1.25;;;0.55;;
58302;SDS011;44109;52.398;7.024;2023-07-31T03:36:30;0.77;;;0.32;;
58302;SDS011;44109;52.398;7.024;2023-07-31T03:38:57;1.27;;;0.63;;
58302;SDS011;44109;52.398;7.024;2023-07-31T03:41:25;2.03;;;0.95;;
58302;SDS011;44109;52.398;7.024;2023-07-31T03:43:54;2.05;;;0.95;;
58302;SDS011;44109;52.398;7.024;2023-07-31T03:46:22;0.88;;;0.50;;
58302;SDS011;44109;52.398;7.024;2023-07-31T03:48:51;2.17;;;0.63;;
58302;SDS011;44109;52.398;7.024;2023-07-31T03:51:18;2.22;;;0.57;;
58302;SDS011;44109;52.398;7.024;2023-07-31T03:53:46;3.13;;;0.65;;
58302;SDS011;44109;52.398;7.024;2023-07-31T03:56:13;2.03;;;0.70;;
58302;SDS011;44109;52.398;7.024;2023-07-31T03:58:41;1.00;;;0.70;;
58302;SDS011;44109;52.398;7.024;2023-07-31T04:01:10;2.10;;;0.95;;
58302;SDS011;44109;52.398;7.024;2023-07-31T04:03:38;2.70;;;0.70;;
58302;SDS011;44109;52.398;7.024;2023-07-31T04:06:05;2.38;;;1.23;;
58302;SDS011;44109;52.398;7.024;2023-07-31T04:08:33;1.27;;;0.95;;
58302;SDS011;44109;52.398;7.024;2023-07-31T04:11:01;4.00;;;0.95;;
58302;SDS011;44109;52.398;7.024;2023-07-31T04:13:29;1.10;;;0.68;;
58302;SDS011;44109;52.398;7.024;2023-07-31T04:15:57;3.28;;;1.38;;
58302;SDS011;44109;52.398;7.024;2023-07-31T04:18:26;3.60;;;1.15;;
58302;SDS011;44109;52.398;7.024;2023-07-31T04:20:53;3.92;;;1.55;;
58302;SDS011;44109;52.398;7.024;2023-07-31T04:23:21;6.28;;;2.00;;
58302;SDS011;44109;52.398;7.024;2023-07-31T04:25:48;7.43;;;2.40;;
58302;SDS011;44109;52.398;7.024;2023-07-31T04:28:16;7.28;;;2.90;;
58302;SDS011;44109;52.398;7.024;2023-07-31T04:30:44;8.40;;;3.40;;
58302;SDS011;44109;52.398;7.024;2023-07-31T04:33:12;9.88;;;2.97;;
58302;SDS011;44109;52.398;7.024;2023-07-31T04:35:41;8.68;;;3.00;;
58302;SDS011;44109;52.398;7.024;2023-07-31T04:38:08;6.60;;;3.67;;
58302;SDS011;44109;52.398;7.024;2023-07-31T04:40:36;8.43;;;4.28;;
58302;SDS011;44109;52.398;7.024;2023-07-31T04:43:03;9.50;;;4.25;;
58302;SDS011;44109;52.398;7.024;2023-07-31T04:45:31;6.18;;;3.53;;
58302;SDS011;44109;52.398;7.024;2023-07-31T04:47:58;6.55;;;2.70;;
58302;SDS011;44109;52.398;7.024;2023-07-31T04:50:26;10.95;;;3.88;;
58302;SDS011;44109;52.398;7.024;2023-07-31T04:52:57;11.20;;;4.20;;
58302;SDS011;44109;52.398;7.024;2023-07-31T04:55:25;8.82;;;3.75;;
58302;SDS011;44109;52.398;7.024;2023-07-31T04:57:52;9.57;;;4.78;;
58302;SDS011;44109;52.398;7.024;2023-07-31T05:00:20;13.40;;;4.18;;
58302;SDS011;44109;52.398;7.024;2023-07-31T05:02:47;13.40;;;5.40;;
58302;SDS011;44109;52.398;7.024;2023-07-31T05:05:15;11.07;;;5.00;;
58302;SDS011;44109;52.398;7.024;2023-07-31T05:07:43;11.10;;;5.28;;
58302;SDS011;44109;52.398;7.024;2023-07-31T05:10:12;12.82;;;5.45;;
58302;SDS011;44109;52.398;7.024;2023-07-31T05:12:39;12.43;;;4.03;;
58302;SDS011;44109;52.398;7.024;2023-07-31T05:15:07;8.63;;;4.72;;
58302;SDS011;44109;52.398;7.024;2023-07-31T05:17:36;12.27;;;4.45;;
58302;SDS011;44109;52.398;7.024;2023-07-31T05:20:04;12.07;;;5.30;;
58302;SDS011;44109;52.398;7.024;2023-07-31T05:22:33;11.65;;;5.18;;
58302;SDS011;44109;52.398;7.024;2023-07-31T05:25:01;9.60;;;3.58;;
58302;SDS011;44109;52.398;7.024;2023-07-31T05:27:31;9.85;;;4.47;;
58302;SDS011;44109;52.398;7.024;2023-07-31T05:29:59;10.70;;;4.60;;
58302;SDS011;44109;52.398;7.024;2023-07-31T05:32:27;7.05;;;3.85;;
58302;SDS011;44109;52.398;7.024;2023-07-31T05:34:55;8.88;;;3.25;;
58302;SDS011;44109;52.398;7.024;2023-07-31T05:37:22;13.82;;;5.72;;
58302;SDS011;44109;52.398;7.024;2023-07-31T05:39:50;10.25;;;4.60;;
58302;SDS011;44109;52.398;7.024;2023-07-31T05:42:18;7.90;;;3.75;;
58302;SDS011;44109;52.398;7.024;2023-07-31T05:44:47;13.05;;;4.28;;
58302;SDS011;44109;52.398;7.024;2023-07-31T05:47:14;13.30;;;4.55;;
58302;SDS011;44109;52.398;7.024;2023-07-31T05:49:42;10.02;;;5.10;;
58302;SDS011;44109;52.398;7.024;2023-07-31T05:52:10;19.55;;;5.88;;
58302;SDS011;44109;52.398;7.024;2023-07-31T05:54:38;9.02;;;3.78;;
58302;SDS011;44109;52.398;7.024;2023-07-31T05:57:06;11.35;;;4.07;;
58302;SDS011;44109;52.398;7.024;2023-07-31T05:59:33;8.63;;;5.00;;
58302;SDS011;44109;52.398;7.024;2023-07-31T06:02:02;10.55;;;4.20;;
58302;SDS011;44109;52.398;7.024;2023-07-31T06:04:31;10.93;;;3.05;;
58302;SDS011;44109;52.398;7.024;2023-07-31T06:06:58;9.68;;;3.80;;
58302;SDS011;44109;52.398;7.024;2023-07-31T06:09:26;6.32;;;2.92;;
58302;SDS011;44109;52.398;7.024;2023-07-31T06:11:54;13.32;;;4.85;;
58302;SDS011;44109;52.398;7.024;2023-07-31T06:14:22;6.28;;;3.97;;
58302;SDS011;44109;52.398;7.024;2023-07-31T06:16:49;9.57;;;4.32;;
58302;SDS011;44109;52.398;7.024;2023-07-31T06:19:18;7.97;;;4.03;;
58302;SDS011;44109;52.398;7.024;2023-07-31T06:21:46;10.07;;;4.22;;
58302;SDS011;44109;52.398;7.024;2023-07-31T06:24:14;7.82;;;4.00;;
58302;SDS011;44109;52.398;7.024;2023-07-31T06:26:44;7.03;;;4.15;;
58302;SDS011;44109;52.398;7.024;2023-07-31T06:29:12;12.48;;;5.03;;
58302;SDS011;44109;52.398;7.024;2023-07-31T06:31:40;8.93;;;4.70;;
58302;SDS011;44109;52.398;7.024;2023-07-31T06:34:09;11.23;;;3.55;;
58302;SDS011;44109;52.398;7.024;2023-07-31T06:36:38;14.05;;;4.85;;
58302;SDS011;44109;52.398;7.024;2023-07-31T06:39:06;11.23;;;5.68;;
58302;SDS011;44109;52.398;7.024;2023-07-31T06:41:34;10.55;;;3.33;;
58302;SDS011;44109;52.398;7.024;2023-07-31T06:44:02;11.07;;;4.07;;
58302;SDS011;44109;52.398;7.024;2023-07-31T06:46:30;14.70;;;4.25;;
58302;SDS011;44109;52.398;7.024;2023-07-31T06:48:58;6.15;;;4.20;;
58302;SDS011;44109;52.398;7.024;2023-07-31T06:51:25;12.38;;;3.35;;
58302;SDS011;44109;52.398;7.024;2023-07-31T06:53:54;8.25;;;3.65;;
58302;SDS011;44109;52.398;7.024;2023-07-31T06:56:22;9.98;;;3.85;;
58302;SDS011;44109;52.398;7.024;2023-07-31T06:58:50;10.38;;;2.85;;
58302;SDS011;44109;52.398;7.024;2023-07-31T07:01:17;8.07;;;3.17;;
58302;SDS011;44109;52.398;7.024;2023-07-31T07:03:45;6.28;;;2.75;;
58302;SDS011;44109;52.398;7.024;2023-07-31T07:06:12;8.35;;;2.90;;
58302;SDS011;44109;52.398;7.024;2023-07-31T07:08:40;7.00;;;2.65;;
58302;SDS011;44109;52.398;7.024;2023-07-31T07:11:09;4.88;;;2.30;;
58302;SDS011;44109;52.398;7.024;2023-07-31T07:13:37;9.15;;;2.90;;
58302;SDS011;44109;52.398;7.024;2023-07-31T07:16:04;5.13;;;2.90;;
58302;SDS011;44109;52.398;7.024;2023-07-31T07:18:32;8.43;;;2.78;;
58302;SDS011;44109;52.398;7.024;2023-07-31T07:20:59;4.47;;;1.98;;
58302;SDS011;44109;52.398;7.024;2023-07-31T07:23:28;4.60;;;2.28;;
58302;SDS011;44109;52.398;7.024;2023-07-31T07:25:55;3.88;;;2.08;;
58302;SDS011;44109;52.398;7.024;2023-07-31T07:28:24;6.95;;;2.08;;
58302;SDS011;44109;52.398;7.024;2023-07-31T07:30:54;6.28;;;2.78;;
58302;SDS011;44109;52.398;7.024;2023-07-31T07:33:21;3.05;;;1.85;;
58302;SDS011;44109;52.398;7.024;2023-07-31T07:35:49;3.85;;;1.65;;
58302;SDS011;44109;52.398;7.024;2023-07-31T07:38:16;5.60;;;2.05;;
58302;SDS011;44109;52.398;7.024;2023-07-31T07:40:45;3.00;;;2.10;;
58302;SDS011;44109;52.398;7.024;2023-07-31T07:43:16;3.95;;;1.95;;
58302;SDS011;44109;52.398;7.024;2023-07-31T07:45:45;4.65;;;1.90;;
58302;SDS011;44109;52.398;7.024;2023-07-31T07:48:12;3.30;;;2.22;;
58302;SDS011;44109;52.398;7.024;2023-07-31T07:50:40;4.85;;;1.95;;
58302;SDS011;44109;52.398;7.024;2023-07-31T07:53:08;2.63;;;1.40;;
58302;SDS011;44109;52.398;7.024;2023-07-31T07:55:35;4.07;;;1.63;;
58302;SDS011;44109;52.398;7.024;2023-07-31T07:58:03;4.50;;;2.25;;
58302;SDS011;44109;52.398;7.024;2023-07-31T08:00:30;3.45;;;1.75;;
58302;SDS011;44109;52.398;7.024;2023-07-31T08:02:59;2.35;;;1.13;;
58302;SDS011;44109;52.398;7.024;2023-07-31T08:05:27;2.75;;;1.23;;
58302;SDS011;44109;52.398;7.024;2023-07-31T08:07:54;5.18;;;1.63;;
58302;SDS011;44109;52.398;7.024;2023-07-31T08:10:22;3.85;;;1.13;;
58302;SDS011;44109;52.398;7.024;2023-07-31T08:12:50;2.88;;;1.40;;
58302;SDS011;44109;52.398;7.024;2023-07-31T08:15:18;2.20;;;1.42;;
58302;SDS011;44109;52.398;7.024;2023-07-31T08:17:45;4.38;;;2.05;;
58302;SDS011;44109;52.398;7.024;2023-07-31T08:20:14;6.80;;;1.98;;
58302;SDS011;44109;52.398;7.024;2023-07-31T08:22:42;1.75;;;1.02;;
58302;SDS011;44109;52.398;7.024;2023-07-31T08:25:09;1.40;;;1.05;;
58302;SDS011;44109;52.398;7.024;2023-07-31T08:27:37;1.25;;;0.73;;
58302;SDS011;44109;52.398;7.024;2023-07-31T08:30:05;3.17;;;1.17;;
58302;SDS011;44109;52.398;7.024;2023-07-31T08:32:34;1.48;;;0.88;;
58302;SDS011;44109;52.398;7.024;2023-07-31T08:35:02;1.40;;;0.85;;
58302;SDS011;44109;52.398;7.024;2023-07-31T08:37:31;1.70;;;0.70;;
58302;SDS011;44109;52.398;7.024;2023-07-31T08:39:59;1.05;;;0.60;;
58302;SDS011;44109;52.398;7.024;2023-07-31T08:42:26;1.90;;;1.15;;
58302;SDS011;44109;52.398;7.024;2023-07-31T08:44:54;2.58;;;0.95;;
58302;SDS011;44109;52.398;7.024;2023-07-31T08:47:23;1.98;;;0.80;;
58302;SDS011;44109;52.398;7.024;2023-07-31T08:49:53;0.80;;;0.65;;
58302;SDS011;44109;52.398;7.024;2023-07-31T08:52:23;2.40;;;0.80;;
58302;SDS011;44109;52.398;7.024;2023-07-31T08:54:52;1.10;;;0.50;;
58302;SDS011;44109;52.398;7.024;2023-07-31T08:57:19;1.33;;;0.88;;
58302;SDS011;44109;52.398;7.024;2023-07-31T08:59:47;1.05;;;0.45;;
58302;SDS011;44109;52.398;7.024;2023-07-31T09:02:16;0.82;;;0.60;;
58302;SDS011;44109;52.398;7.024;2023-07-31T09:04:46;1.10;;;0.35;;
58302;SDS011;44109;52.398;7.024;2023-07-31T09:07:14;0.98;;;0.45;;
58302;SDS011;44109;52.398;7.024;2023-07-31T09:09:46;0.38;;;0.22;;
58302;SDS011;44109;52.398;7.024;2023-07-31T09:12:15;0.43;;;0.30;;
58302;SDS011;44109;52.398;7.024;2023-07-31T09:14:43;1.40;;;0.47;;
58302;SDS011;44109;52.398;7.024;2023-07-31T09:17:13;0.60;;;0.30;;
58302;SDS011;44109;52.398;7.024;2023-07-31T09:19:41;3.03;;;0.70;;
58302;SDS011;44109;52.398;7.024;2023-07-31T09:22:08;0.32;;;0.20;;
58302;SDS011;44109;52.398;7.024;2023-07-31T09:24:36;0.47;;;0.28;;
58302;SDS011;44109;52.398;7.024;2023-07-31T09:27:05;0.50;;;0.30;;
58302;SDS011;44109;52.398;7.024;2023-07-31T09:29:34;0.45;;;0.30;;
58302;SDS011;44109;52.398;7.024;2023-07-31T09:32:02;0.60;;;0.35;;
58302;SDS011;44109;52.398;7.024;2023-07-31T09:34:36;0.40;;;0.20;;
58302;SDS011;44109;52.398;7.024;2023-07-31T09:37:05;1.25;;;0.30;;
58302;SDS011;44109;52.398;7.024;2023-07-31T09:39:33;0.68;;;0.55;;
58302;SDS011;44109;52.398;7.024;2023-07-31T09:42:13;1.30;;;0.43;;
58302;SDS011;44109;52.398;7.024;2023-07-31T09:44:52;1.30;;;0.35;;
58302;SDS011;44109;52.398;7.024;2023-07-31T09:47:23;1.15;;;0.22;;
58302;SDS011;44109;52.398;7.024;2023-07-31T09:49:51;0.90;;;0.50;;
58302;SDS011;44109;52.398;7.024;2023-07-31T09:52:19;0.98;;;0.50;;
58302;SDS011;44109;52.398;7.024;2023-07-31T09:54:46;0.70;;;0.40;;
58302;SDS011;44109;52.398;7.024;2023-07-31T09:57:14;0.68;;;0.45;;
58302;SDS011;44109;52.398;7.024;2023-07-31T09:59:45;1.63;;;0.38;;
58302;SDS011;44109;52.398;7.024;2023-07-31T10:02:20;1.05;;;0.40;;
58302;SDS011;44109;52.398;7.024;2023-07-31T10:04:49;0.93;;;0.40;;
58302;SDS011;44109;52.398;7.024;2023-07-31T10:07:20;0.20;;;0.20;;
58302;SDS011;44109;52.398;7.024;2023-07-31T10:09:53;0.85;;;0.38;;
58302;SDS011;44109;52.398;7.024;2023-07-31T10:12:22;1.60;;;0.32;;
58302;SDS011;44109;52.398;7.024;2023-07-31T10:14:54;0.40;;;0.20;;
58302;SDS011;44109;52.398;7.024;2023-07-31T10:17:24;0.63;;;0.32;;
58302;SDS011;44109;52.398;7.024;2023-07-31T10:19:53;2.42;;;0.50;;
58302;SDS011;44109;52.398;7.024;2023-07-31T10:22:21;1.00;;;0.35;;
58302;SDS011;44109;52.398;7.024;2023-07-31T10:24:49;0.93;;;0.60;;
58302;SDS011;44109;52.398;7.024;2023-07-31T10:27:21;1.33;;;0.60;;
58302;SDS011;44109;52.398;7.024;2023-07-31T10:29:49;0.73;;;0.60;;
58302;SDS011;44109;52.398;7.024;2023-07-31T10:32:19;0.70;;;0.40;;
58302;SDS011;44109;52.398;7.024;2023-07-31T10:34:51;2.17;;;0.70;;
58302;SDS011;44109;52.398;7.024;2023-07-31T10:37:19;0.68;;;0.52;;
58302;SDS011;44109;52.398;7.024;2023-07-31T10:39:56;1.50;;;0.93;;
58302;SDS011;44109;52.398;7.024;2023-07-31T10:42:30;1.13;;;0.70;;
58302;SDS011;44109;52.398;7.024;2023-07-31T10:45:00;1.45;;;0.68;;
58302;SDS011;44109;52.398;7.024;2023-07-31T10:47:30;2.03;;;0.90;;
58302;SDS011;44109;52.398;7.024;2023-07-31T10:50:16;1.60;;;0.82;;
58302;SDS011;44109;52.398;7.024;2023-07-31T10:52:47;0.98;;;0.80;;
58302;SDS011;44109;52.398;7.024;2023-07-31T10:55:17;5.05;;;0.95;;
58302;SDS011;44109;52.398;7.024;2023-07-31T10:57:56;1.20;;;0.73;;
58302;SDS011;44109;52.398;7.024;2023-07-31T11:00:32;2.50;;;0.95;;
58302;SDS011;44109;52.398;7.024;2023-07-31T11:03:01;1.48;;;0.65;;
58302;SDS011;44109;52.398;7.024;2023-07-31T11:05:45;1.85;;;0.70;;
58302;SDS011;44109;52.398;7.024;2023-07-31T11:08:20;3.28;;;1.08;;
58302;SDS011;44109;52.398;7.024;2023-07-31T11:10:49;1.60;;;1.00;;
58302;SDS011;44109;52.398;7.024;2023-07-31T11:13:33;2.35;;;1.25;;
58302;SDS011;44109;52.398;7.024;2023-07-31T11:16:07;2.65;;;1.00;;
58302;SDS011;44109;52.398;7.024;2023-07-31T11:18:35;2.65;;;1.80;;
58302;SDS011;44109;52.398;7.024;2023-07-31T11:21:07;2.22;;;1.27;;
58302;SDS011;44109;52.398;7.024;2023-07-31T11:23:36;1.50;;;0.98;;
58302;SDS011;44109;52.398;7.024;2023-07-31T11:26:05;2.15;;;1.35;;
58302;SDS011;44109;52.398;7.024;2023-07-31T11:28:34;2.25;;;1.58;;
58302;SDS011;44109;52.398;7.024;2023-07-31T11:31:02;4.53;;;2.05;;
58302;SDS011;44109;52.398;7.024;2023-07-31T11:33:30;2.72;;;1.50;;
58302;SDS011;44109;52.398;7.024;2023-07-31T11:35:58;3.45;;;1.45;;
58302;SDS011;44109;52.398;7.024;2023-07-31T11:38:27;4.03;;;1.48;;
58302;SDS011;44109;52.398;7.024;2023-07-31T11:40:58;3.65;;;1.83;;
58302;SDS011;44109;52.398;7.024;2023-07-31T11:43:29;3.35;;;1.73;;
58302;SDS011;44109;52.398;7.024;2023-07-31T11:45:59;4.82;;;2.10;;
58302;SDS011;44109;52.398;7.024;2023-07-31T11:48:29;5.18;;;2.25;;
58302;SDS011;44109;52.398;7.024;2023-07-31T11:51:00;3.25;;;1.85;;
58302;SDS011;44109;52.398;7.024;2023-07-31T11:53:33;4.70;;;3.17;;
58302;SDS011;44109;52.398;7.024;2023-07-31T11:56:09;3.40;;;2.03;;
58302;SDS011;44109;52.398;7.024;2023-07-31T11:58:41;6.82;;;2.75;;
58302;SDS011;44109;52.398;7.024;2023-07-31T12:01:10;4.20;;;2.63;;
58302;SDS011;44109;52.398;7.024;2023-07-31T12:03:40;3.83;;;2.17;;
58302;SDS011;44109;52.398;7.024;2023-07-31T12:06:09;3.58;;;2.20;;
58302;SDS011;44109;52.398;7.024;2023-07-31T12:08:38;3.63;;;2.67;;
58302;SDS011;44109;52.398;7.024;2023-07-31T12:11:08;5.22;;;3.47;;
58302;SDS011;44109;52.398;7.024;2023-07-31T12:13:36;6.50;;;2.78;;
58302;SDS011;44109;52.398;7.024;2023-07-31T12:16:04;5.15;;;2.75;;
58302;SDS011;44109;52.398;7.024;2023-07-31T12:18:33;4.45;;;3.15;;
58302;SDS011;44109;52.398;7.024;2023-07-31T12:21:03;5.97;;;3.45;;
58302;SDS011;44109;52.398;7.024;2023-07-31T12:23:34;6.47;;;2.58;;
58302;SDS011;44109;52.398;7.024;2023-07-31T12:26:05;3.80;;;2.90;;
58302;SDS011;44109;52.398;7.024;2023-07-31T12:28:35;4.03;;;2.65;;
58302;SDS011;44109;52.398;7.024;2023-07-31T12:31:04;5.53;;;3.83;;
58302;SDS011;44109;52.398;7.024;2023-07-31T12:33:35;6.32;;;3.40;;
58302;SDS011;44109;52.398;7.024;2023-07-31T12:36:06;5.20;;;3.35;;
58302;SDS011;44109;52.398;7.024;2023-07-31T12:38:36;4.82;;;2.90;;
58302;SDS011;44109;52.398;7.024;2023-07-31T12:41:05;5.88;;;3.30;;
58302;SDS011;44109;52.398;7.024;2023-07-31T12:43:33;4.72;;;3.40;;
58302;SDS011;44109;52.398;7.024;2023-07-31T12:46:01;5.05;;;2.97;;
58302;SDS011;44109;52.398;7.024;2023-07-31T12:48:29;5.40;;;2.80;;
58302;SDS011;44109;52.398;7.024;2023-07-31T12:50:58;3.60;;;2.40;;
58302;SDS011;44109;52.398;7.024;2023-07-31T12:53:25;4.53;;;2.80;;
58302;SDS011;44109;52.398;7.024;2023-07-31T12:55:54;4.07;;;2.42;;
58302;SDS011;44109;52.398;7.024;2023-07-31T12:58:23;4.53;;;2.50;;
58302;SDS011;44109;52.398;7.024;2023-07-31T13:00:51;4.75;;;2.55;;
58302;SDS011;44109;52.398;7.024;2023-07-31T13:03:19;3.22;;;2.50;;
58302;SDS011;44109;52.398;7.024;2023-07-31T13:05:46;3.88;;;1.88;;
58302;SDS011;44109;52.398;7.024;2023-07-31T13:08:14;4.47;;;2.10;;
58302;SDS011;44109;52.398;7.024;2023-07-31T13:10:43;6.07;;;3.42;;
58302;SDS011;44109;52.398;7.024;2023-07-31T13:13:10;4.95;;;3.05;;
58302;SDS011;44109;52.398;7.024;2023-07-31T13:15:39;5.57;;;2.03;;
58302;SDS011;44109;52.398;7.024;2023-07-31T13:18:07;6.15;;;2.25;;
58302;SDS011;44109;52.398;7.024;2023-07-31T13:20:35;5.93;;;2.17;;
58302;SDS011;44109;52.398;7.024;2023-07-31T13:23:03;3.45;;;2.42;;
58302;SDS011;44109;52.398;7.024;2023-07-31T13:25:30;6.43;;;3.55;;
58302;SDS011;44109;52.398;7.024;2023-07-31T13:27:58;5.55;;;2.83;;
58302;SDS011;44109;52.398;7.024;2023-07-31T13:30:26;4.65;;;2.35;;
58302;SDS011;44109;52.398;7.024;2023-07-31T13:32:54;6.07;;;2.40;;
58302;SDS011;44109;52.398;7.024;2023-07-31T13:35:22;5.53;;;3.10;;
58302;SDS011;44109;52.398;7.024;2023-07-31T13:37:50;3.95;;;2.28;;
58302;SDS011;44109;52.398;7.024;2023-07-31T13:40:17;3.95;;;2.67;;
58302;SDS011;44109;52.398;7.024;2023-07-31T13:42:45;5.95;;;2.88;;
58302;SDS011;44109;52.398;7.024;2023-07-31T13:45:14;4.43;;;2.90;;
58302;SDS011;44109;52.398;7.024;2023-07-31T13:47:42;7.28;;;3.33;;
58302;SDS011;44109;52.398;7.024;2023-07-31T13:50:11;6.03;;;3.38;;
58302;SDS011;44109;52.398;7.024;2023-07-31T13:52:38;5.05;;;2.97;;
58302;SDS011;44109;52.398;7.024;2023-07-31T13:55:06;4.15;;;2.40;;
58302;SDS011;44109;52.398;7.024;2023-07-31T13:57:35;5.70;;;3.53;;
58302;SDS011;44109;52.398;7.024;2023-07-31T14:00:02;4.25;;;2.60;;
58302;SDS011;44109;52.398;7.024;2023-07-31T14:02:31;4.32;;;2.35;;
58302;SDS011;44109;52.398;7.024;2023-07-31T14:04:59;7.05;;;3.03;;
58302;SDS011;44109;52.398;7.024;2023-07-31T14:07:28;4.70;;;2.35;;
58302;SDS011;44109;52.398;7.024;2023-07-31T14:09:55;5.35;;;2.80;;
58302;SDS011;44109;52.398;7.024;2023-07-31T14:12:23;4.55;;;2.58;;
58302;SDS011;44109;52.398;7.024;2023-07-31T14:14:51;3.13;;;1.83;;
58302;SDS011;44109;52.398;7.024;2023-07-31T14:17:18;5.25;;;2.20;;
58302;SDS011;44109;52.398;7.024;2023-07-31T14:19:46;3.25;;;2.03;;
58302;SDS011;44109;52.398;7.024;2023-07-31T14:22:13;3.40;;;1.75;;
58302;SDS011;44109;52.398;7.024;2023-07-31T14:24:42;3.78;;;2.22;;
58302;SDS011;44109;52.398;7.024;2023-07-31T14:27:10;5.35;;;2.17;;
58302;SDS011;44109;52.398;7.024;2023-07-31T14:29:38;4.60;;;1.83;;
58302;SDS011;44109;52.398;7.024;2023-07-31T14:32:05;4.22;;;2.38;;
58302;SDS011;44109;52.398;7.024;2023-07-31T14:34:34;5.28;;;2.55;;
58302;SDS011;44109;52.398;7.024;2023-07-31T14:37:02;3.20;;;2.03;;
58302;SDS011;44109;52.398;7.024;2023-07-31T14:39:30;2.22;;;1.40;;
58302;SDS011;44109;52.398;7.024;2023-07-31T14:41:59;5.80;;;2.58;;
58302;SDS011;44109;52.398;7.024;2023-07-31T14:44:27;3.13;;;2.03;;
58302;SDS011;44109;52.398;7.024;2023-07-31T14:46:54;4.28;;;2.40;;
58302;SDS011;44109;52.398;7.024;2023-07-31T14:49:22;3.88;;;2.25;;
58302;SDS011;44109;52.398;7.024;2023-07-31T14:51:50;3.45;;;1.80;;
58302;SDS011;44109;52.398;7.024;2023-07-31T14:54:18;3.70;;;1.98;;
58302;SDS011;44109;52.398;7.024;2023-07-31T14:56:45;3.95;;;2.22;;